Johnson County (6A4)
Johnson County, TN
Field Elevation: 2240
Lat: 36°25.07N  Long: 81°49.51W
CTAF/Unicom Freq: 122.7000
   
    
Weather Advisories
7/25/2014 15:20 Z
Altimeter 30.14" Hg
Wind 160° @ 0 KT
Gusts --
Visibility 10 SM
Ceiling FEW220
Temperature 24° C (75° F)
Dewpoint 18° C (64° F)
Relative Humidity 69%
Density Altitude 3,500 feet
Condensation Altitude 5,300 feet
  Wind and Runways
Indicated Runway = 24
History
 
 
More Info
All DigiWx sites map
 
Johnson County Airport FBO
 
Airport IQ 5010
(M01) General Dewitt Spain Airport
(3M3) Collegedale Muni
 
about DigiWx
 
FAA Disclaimer: The data displayed is for advisory purposes only and is not to be used for flight planning or operations. For official data, please call (not available) to hear the current automated AWOS voice message.
  METAR 6A4 251520Z AUTO 16000KT 10SM FEW220 24/18 A3014